Terminal Aerodrome Forecast
Issued by NWS

Home | Current Version | Previous Version | Text Only | Print | Product List | Glossary On
Versions: 1 2 3 4 5 6 7 8 9 10 11 12 13 14 15 16 17 18
000
FTUS46 KMTR 221730
TAFSTS
TAF
KSTS 221730Z 2218/2318 00000KT P6SM FEW009
     FM221900 18009KT P6SM SKC
     FM230400 15005KT P6SM SKC
     FM230600 00000KT P6SM BKN007
     FM231000 VRB03KT P6SM OVC005=

USA.gov is the U.S. government's official web portal to all federal, state and local government web resources and services.